Terminal Aerodrome Forecast
Issued by NWS

Home | Current Version | Previous Version | Text Only | Print | Product List | Glossary On
Versions: 1 2 3 4 5 6 7 8 9 10 11 12 13 14 15 16
510
FTUS46 KHNX 200520
TAFMCE
TAF
KMCE 200520Z 2006/2106 13012G19KT P6SM SCT050 OVC080
      TEMPO 2008/2012 -RA OVC050
     FM201200 13020G30KT P6SM -RA OVC050=

USA.gov is the U.S. government's official web portal to all federal, state and local government web resources and services.